Main page
METAR-TAF:

METAR-TAF

Airports :

Porto Alegre, Rio Grande do Sul, Brazil

Salgado Filho International Airport

latitude: 30-00S, longitude: 051-11W, elevation: 3 m

Current weather observation

The report was made 16 minutes ago, at 06:00 UTC
Calm wind
Temperature 12°C
Humidity 94%
Pressure 1022 hPa
Visibility 10 km or more
no clouds below 1500 m and no cumulonimbus

METAR: SBPA 010600Z 00000KT CAVOK 12/11 Q1022

Time: 03:16 (06:16 UTC)

Forecast

The report was made 3 hours and 16 minutes ago, at 03:00 UTC
Forecast valid from 01 at 06 UTC to 02 at 06 UTC
Wind 4 kt from the East
Visibility 10 km or more
no clouds below 1500 m and no cumulonimbus
Probability 30%
from 01 at 08 UTC to 01 at 10 UTC
Visibility: 6000 m
Becoming
from 01 at 12 UTC to 01 at 14 UTC
Wind 5 kt from the East/Southeast

TAF: SBPA 010300Z 0106/0206 08004KT CAVOK TN11/0109Z TX27/0118Z PROB30 0108/0110 6000 NSC BECMG 0112/0114 12005KT RMK PDJ

Weather observations and forecasts of more than 4000 airports (METAR and TAF reports).

The available stations are represented by yellow and red dots on the map.

Hover mouse over dot to see the name of the station.

Then click to see weather observations and forecasts.

To change the map : click on the green buttons with a black cross to zoom in, on the green button with a dash to zoom out, or on the green arrows for adjacent maps.


METAR-TAF: